PWSweather.com
Personal Weather Stations
Station Observations
SBERGENWX
Wood Ridge, NJ 07075

Wood Ridge, NJ 07075

Lat: 40.851667, Lon: -74.088131

Elevation: 177

Station Type: Davis Vantage Vue

http://201weather.com/

High Low Average
Temperature 46.5°F8.1°C 35.7°F2.1°C 41.2°F5.1°C
Dew Point 34.0°F1.1°C 30.4°F-0.9°C 32.2°F0.1°C
Winds 5.8 mph 9.3 kmh Calm Calm 2.0 mph W3.2 kmh W
Wind Gusts 11.5 mph18.5 kmh -- 4.0 mph6.4 kmh
Humidity 81% 57% 70%
Pressure 30.29 in1025.7 mb 29.97 in1014.9 mb -
Precipitation 0.04 in1.0 mm - -
Hour Temp Dew Point Humidity Winds Wind Gusts Pressure Precip Precip Rate Daily Precip Total
12:00 AM 36.6°F2.6°C 30.7°F-0.7°C 79% Calm Calm 1.2 mph1.9 kmh 29.97 in1014.9 mb - 0.00 in0.0 mm 0.00 in0.0 mm
12:15 AM 36.9°F2.7°C 30.7°F-0.7°C 78% 1.2 mph W1.9 kmh W 3.5 mph5.6 kmh 29.97 in1014.9 mb - 0.00 in0.0 mm 0.00 in0.0 mm
12:30 AM 37.1°F2.8°C 30.8°F-0.7°C 78% 2.3 mph W3.7 kmh W 4.6 mph7.4 kmh 29.98 in1015.2 mb - 0.00 in0.0 mm 0.00 in0.0 mm
12:45 AM 37.0°F2.8°C 30.8°F-0.7°C 78% Calm Calm 3.5 mph5.6 kmh 29.98 in1015.2 mb - 0.00 in0.0 mm 0.00 in0.0 mm
01:00 AM 36.8°F2.7°C 30.9°F-0.6°C 79% 2.3 mph WNW3.7 kmh WNW 3.5 mph5.6 kmh 29.98 in1015.2 mb - 0.00 in0.0 mm 0.00 in0.0 mm
01:15 AM 36.6°F2.6°C 30.7°F-0.7°C 79% 1.2 mph W1.9 kmh W 3.5 mph5.6 kmh 29.98 in1015.2 mb - 0.00 in0.0 mm 0.00 in0.0 mm
01:30 AM 36.3°F2.4°C 30.7°F-0.7°C 80% 1.2 mph WSW1.9 kmh WSW 1.2 mph1.9 kmh 29.98 in1015.2 mb - 0.00 in0.0 mm 0.00 in0.0 mm
01:45 AM 35.9°F2.2°C 30.6°F-0.8°C 81% 2.3 mph W3.7 kmh W 4.6 mph7.4 kmh 29.99 in1015.6 mb - 0.00 in0.0 mm 0.00 in0.0 mm
02:00 AM 35.7°F2.1°C 30.4°F-0.9°C 81% 1.2 mph W1.9 kmh W 3.5 mph5.6 kmh 30.00 in1015.9 mb - 0.00 in0.0 mm 0.00 in0.0 mm
02:15 AM 35.9°F2.2°C 30.6°F-0.8°C 81% 1.2 mph W1.9 kmh W 3.5 mph5.6 kmh 30.00 in1015.9 mb - 0.00 in0.0 mm 0.00 in0.0 mm
02:30 AM 36.0°F2.2°C 30.7°F-0.7°C 81% 2.3 mph W3.7 kmh W 3.5 mph5.6 kmh 30.01 in1016.3 mb - 0.00 in0.0 mm 0.00 in0.0 mm
02:45 AM 36.2°F2.3°C 30.9°F-0.6°C 81% 2.3 mph W3.7 kmh W 4.6 mph7.4 kmh 30.01 in1016.3 mb - 0.00 in0.0 mm 0.00 in0.0 mm
03:00 AM 36.5°F2.5°C 31.2°F-0.4°C 81% 1.2 mph WNW1.9 kmh WNW 3.5 mph5.6 kmh 30.01 in1016.3 mb - 0.00 in0.0 mm 0.00 in0.0 mm
03:15 AM 36.7°F2.6°C 31.4°F-0.3°C 81% 2.3 mph W3.7 kmh W 3.5 mph5.6 kmh 30.01 in1016.3 mb - 0.00 in0.0 mm 0.00 in0.0 mm
03:30 AM 36.6°F2.6°C 31.3°F-0.4°C 81% 2.3 mph WNW3.7 kmh WNW 5.8 mph9.3 kmh 30.01 in1016.3 mb - 0.00 in0.0 mm 0.00 in0.0 mm
03:45 AM 36.6°F2.6°C 31.4°F-0.3°C 81% 2.3 mph W3.7 kmh W 3.5 mph5.6 kmh 30.02 in1016.6 mb - 0.00 in0.0 mm 0.00 in0.0 mm
04:00 AM 36.7°F2.6°C 31.4°F-0.3°C 81% 2.3 mph W3.7 kmh W 3.5 mph5.6 kmh 30.03 in1016.9 mb - 0.00 in0.0 mm 0.00 in0.0 mm
04:15 AM 36.9°F2.7°C 31.6°F-0.2°C 81% 2.3 mph WNW3.7 kmh WNW 3.5 mph5.6 kmh 30.03 in1016.9 mb - 0.00 in0.0 mm 0.00 in0.0 mm
04:30 AM 37.1°F2.8°C 31.8°F-0.1°C 81% 2.3 mph WNW3.7 kmh WNW 4.6 mph7.4 kmh 30.04 in1017.3 mb - 0.00 in0.0 mm 0.00 in0.0 mm
04:45 AM 37.3°F2.9°C 31.7°F-0.2°C 80% 2.3 mph WNW3.7 kmh WNW 3.5 mph5.6 kmh 30.05 in1017.6 mb - 0.00 in0.0 mm 0.00 in0.0 mm
05:00 AM 37.6°F3.1°C 32.0°F0.0°C 80% 3.5 mph WNW5.6 kmh WNW 3.5 mph5.6 kmh 30.06 in1017.9 mb - 0.00 in0.0 mm 0.00 in0.0 mm
05:15 AM 37.8°F3.2°C 32.2°F0.1°C 80% 2.3 mph WNW3.7 kmh WNW 3.5 mph5.6 kmh 30.07 in1018.3 mb - 0.00 in0.0 mm 0.00 in0.0 mm
05:30 AM 37.9°F3.3°C 32.0°F0.0°C 79% 2.3 mph WNW3.7 kmh WNW 3.5 mph5.6 kmh 30.08 in1018.6 mb - 0.00 in0.0 mm 0.00 in0.0 mm
05:45 AM 38.0°F3.3°C 32.1°F0.1°C 79% 1.2 mph W1.9 kmh W 2.3 mph3.7 kmh 30.09 in1019.0 mb - 0.00 in0.0 mm 0.00 in0.0 mm
06:00 AM 38.1°F3.4°C 32.2°F0.1°C 79% 2.3 mph WNW3.7 kmh WNW 3.5 mph5.6 kmh 30.09 in1019.0 mb - 0.00 in0.0 mm 0.00 in0.0 mm
06:15 AM 38.1°F3.4°C 32.2°F0.1°C 79% 1.2 mph W1.9 kmh W 1.2 mph1.9 kmh 30.09 in1019.0 mb - 0.00 in0.0 mm 0.00 in0.0 mm
06:30 AM 38.2°F3.4°C 32.3°F0.2°C 79% 1.2 mph W1.9 kmh W 3.5 mph5.6 kmh 30.10 in1019.3 mb - 0.00 in0.0 mm 0.00 in0.0 mm
06:45 AM 37.9°F3.3°C 32.3°F0.2°C 80% 2.3 mph W3.7 kmh W 3.5 mph5.6 kmh 30.10 in1019.3 mb - 0.00 in0.0 mm 0.00 in0.0 mm
07:00 AM 37.6°F3.1°C 32.3°F0.2°C 81% 1.2 mph WNW1.9 kmh WNW 2.3 mph3.7 kmh 30.11 in1019.6 mb - 0.00 in0.0 mm 0.00 in0.0 mm
07:15 AM 37.7°F3.2°C 32.4°F0.2°C 81% 1.2 mph W1.9 kmh W 2.3 mph3.7 kmh 30.12 in1020.0 mb - 0.00 in0.0 mm 0.00 in0.0 mm
07:30 AM 38.0°F3.3°C 32.4°F0.2°C 80% 1.2 mph W1.9 kmh W 2.3 mph3.7 kmh 30.12 in1020.0 mb - 0.00 in0.0 mm 0.00 in0.0 mm
07:45 AM 38.3°F3.5°C 32.7°F0.4°C 80% 2.3 mph WNW3.7 kmh WNW 3.5 mph5.6 kmh 30.13 in1020.3 mb - 0.00 in0.0 mm 0.00 in0.0 mm
08:00 AM 38.9°F3.8°C 32.9°F0.5°C 79% 1.2 mph W1.9 kmh W 3.5 mph5.6 kmh 30.14 in1020.7 mb - 0.00 in0.0 mm 0.00 in0.0 mm
08:15 AM 39.7°F4.3°C 33.1°F0.6°C 77% 2.3 mph WNW3.7 kmh WNW 3.5 mph5.6 kmh 30.15 in1021.0 mb - 0.00 in0.0 mm 0.00 in0.0 mm
08:30 AM 40.4°F4.7°C 33.4°F0.8°C 76% 1.2 mph W1.9 kmh W 2.3 mph3.7 kmh 30.15 in1021.0 mb - 0.00 in0.0 mm 0.00 in0.0 mm
08:45 AM 41.1°F5.1°C 33.4°F0.8°C 74% 2.3 mph W3.7 kmh W 4.6 mph7.4 kmh 30.15 in1021.0 mb - 0.00 in0.0 mm 0.00 in0.0 mm
09:00 AM 41.5°F5.3°C 33.1°F0.6°C 72% 4.6 mph WNW7.4 kmh WNW 5.8 mph9.3 kmh 30.15 in1021.0 mb - 0.00 in0.0 mm 0.00 in0.0 mm
09:15 AM 42.2°F5.7°C 33.1°F0.6°C 70% 3.5 mph WNW5.6 kmh WNW 6.9 mph11.1 kmh 30.15 in1021.0 mb - 0.00 in0.0 mm 0.00 in0.0 mm
09:30 AM 42.8°F6.0°C 33.3°F0.7°C 69% 2.3 mph W3.7 kmh W 4.6 mph7.4 kmh 30.15 in1021.0 mb - 0.00 in0.0 mm 0.00 in0.0 mm
09:45 AM 43.5°F6.4°C 34.0°F1.1°C 69% Calm Calm 6.9 mph11.1 kmh 30.16 in1021.3 mb - 0.00 in0.0 mm 0.00 in0.0 mm
10:00 AM 44.7°F7.1°C 34.0°F1.1°C 66% 1.2 mph NW1.9 kmh NW 3.5 mph5.6 kmh 30.15 in1021.0 mb - 0.00 in0.0 mm 0.00 in0.0 mm
10:15 AM 45.1°F7.3°C 32.0°F0.0°C 60% 1.2 mph NW1.9 kmh NW 4.6 mph7.4 kmh 30.16 in1021.3 mb - 0.00 in0.0 mm 0.00 in0.0 mm
10:30 AM 45.6°F7.6°C 31.7°F-0.2°C 58% 2.3 mph WNW3.7 kmh WNW 4.6 mph7.4 kmh 30.16 in1021.3 mb - 0.00 in0.0 mm 0.00 in0.0 mm
10:45 AM 46.5°F8.1°C 32.1°F0.1°C 57% 2.3 mph WNW3.7 kmh WNW 3.5 mph5.6 kmh 30.16 in1021.3 mb - 0.01 in0.3 mm 0.01 in0.3 mm
11:00 AM 45.6°F7.6°C 32.5°F0.3°C 60% Calm Calm 2.3 mph3.7 kmh 30.16 in1021.3 mb - 0.01 in0.3 mm 0.01 in0.3 mm
11:15 AM 45.6°F7.6°C 32.5°F0.3°C 60% 1.2 mph WNW1.9 kmh WNW 3.5 mph5.6 kmh 30.16 in1021.3 mb - 0.01 in0.3 mm 0.01 in0.3 mm
11:30 AM 45.5°F7.5°C 32.4°F0.2°C 60% 2.3 mph NW3.7 kmh NW 3.5 mph5.6 kmh 30.16 in1021.3 mb - 0.01 in0.3 mm 0.01 in0.3 mm
11:45 AM 44.9°F7.2°C 32.3°F0.2°C 61% 2.3 mph NW3.7 kmh NW 10.4 mph16.7 kmh 30.16 in1021.3 mb - 0.02 in0.5 mm 0.03 in0.8 mm
12:00 PM 44.9°F7.2°C 33.1°F0.6°C 63% Calm Calm 3.5 mph5.6 kmh 30.16 in1021.3 mb - 0.03 in0.8 mm 0.04 in1.0 mm
12:15 PM 45.1°F7.3°C 32.4°F0.2°C 61% 2.3 mph WNW3.7 kmh WNW 6.9 mph11.1 kmh 30.16 in1021.3 mb - 0.03 in0.8 mm 0.04 in1.0 mm
12:30 PM 44.9°F7.2°C 32.3°F0.2°C 61% 3.5 mph WNW5.6 kmh WNW 4.6 mph7.4 kmh 30.16 in1021.3 mb - 0.03 in0.8 mm 0.04 in1.0 mm
12:45 PM 44.9°F7.2°C 32.7°F0.4°C 62% Calm Calm 1.2 mph1.9 kmh 30.16 in1021.3 mb - 0.02 in0.5 mm 0.04 in1.0 mm
01:00 PM 44.8°F7.1°C 32.6°F0.3°C 62% 2.3 mph WNW3.7 kmh WNW 5.8 mph9.3 kmh 30.15 in1021.0 mb - 0.00 in0.0 mm 0.04 in1.0 mm
01:15 PM 45.2°F7.3°C 32.5°F0.3°C 61% 3.5 mph WNW5.6 kmh WNW 6.9 mph11.1 kmh 30.15 in1021.0 mb - 0.00 in0.0 mm 0.04 in1.0 mm
01:30 PM 45.2°F7.3°C 32.6°F0.3°C 61% 2.3 mph WNW3.7 kmh WNW 3.5 mph5.6 kmh 30.16 in1021.3 mb - 0.00 in0.0 mm 0.04 in1.0 mm
01:45 PM 45.3°F7.4°C 32.2°F0.1°C 60% 2.3 mph WNW3.7 kmh WNW 5.8 mph9.3 kmh 30.16 in1021.3 mb - 0.00 in0.0 mm 0.04 in1.0 mm
02:00 PM 45.3°F7.4°C 31.8°F-0.1°C 59% 1.2 mph W1.9 kmh W 2.3 mph3.7 kmh 30.15 in1021.0 mb - 0.00 in0.0 mm 0.04 in1.0 mm
02:15 PM 45.4°F7.4°C 31.9°F-0.1°C 59% 3.5 mph W5.6 kmh W 6.9 mph11.1 kmh 30.15 in1021.0 mb - 0.00 in0.0 mm 0.04 in1.0 mm
02:30 PM 45.5°F7.5°C 31.5°F-0.3°C 58% 1.2 mph WNW1.9 kmh WNW 4.6 mph7.4 kmh 30.15 in1021.0 mb - 0.00 in0.0 mm 0.04 in1.0 mm
02:45 PM 45.3°F7.4°C 31.8°F-0.1°C 59% 2.3 mph WNW3.7 kmh WNW 3.5 mph5.6 kmh 30.16 in1021.3 mb - 0.00 in0.0 mm 0.04 in1.0 mm
03:00 PM 45.2°F7.3°C 31.7°F-0.2°C 59% 3.5 mph WNW5.6 kmh WNW 6.9 mph11.1 kmh 30.16 in1021.3 mb - 0.00 in0.0 mm 0.04 in1.0 mm
03:15 PM 45.0°F7.2°C 31.9°F-0.1°C 60% 5.8 mph W9.3 kmh W 11.5 mph18.5 kmh 30.17 in1021.7 mb - 0.00 in0.0 mm 0.04 in1.0 mm
03:30 PM 44.8°F7.1°C 32.2°F0.1°C 61% 3.5 mph WNW5.6 kmh WNW 5.8 mph9.3 kmh 30.17 in1021.7 mb - 0.00 in0.0 mm 0.04 in1.0 mm
03:45 PM 44.5°F6.9°C 32.3°F0.2°C 62% 3.5 mph WNW5.6 kmh WNW 4.6 mph7.4 kmh 30.17 in1021.7 mb - 0.00 in0.0 mm 0.04 in1.0 mm
04:00 PM 44.3°F6.8°C 32.5°F0.3°C 63% 2.3 mph WNW3.7 kmh WNW 3.5 mph5.6 kmh 30.18 in1022.0 mb - 0.00 in0.0 mm 0.04 in1.0 mm
04:15 PM 44.0°F6.7°C 32.6°F0.3°C 64% 1.2 mph W1.9 kmh W 3.5 mph5.6 kmh 30.18 in1022.0 mb - 0.00 in0.0 mm 0.04 in1.0 mm
04:30 PM 43.7°F6.5°C 32.3°F0.2°C 64% 1.2 mph WNW1.9 kmh WNW 3.5 mph5.6 kmh 30.19 in1022.4 mb - 0.00 in0.0 mm 0.04 in1.0 mm
04:45 PM 43.6°F6.4°C 32.6°F0.3°C 65% 3.5 mph WNW5.6 kmh WNW 5.8 mph9.3 kmh 30.20 in1022.7 mb - 0.00 in0.0 mm 0.04 in1.0 mm
05:00 PM 43.4°F6.3°C 32.4°F0.2°C 65% 3.5 mph WNW5.6 kmh WNW 4.6 mph7.4 kmh 30.21 in1023.0 mb - 0.00 in0.0 mm 0.04 in1.0 mm
05:15 PM 43.3°F6.3°C 32.7°F0.4°C 66% 2.3 mph WNW3.7 kmh WNW 3.5 mph5.6 kmh 30.21 in1023.0 mb - 0.00 in0.0 mm 0.04 in1.0 mm
05:30 PM 43.2°F6.2°C 32.6°F0.3°C 66% 3.5 mph WNW5.6 kmh WNW 5.8 mph9.3 kmh 30.21 in1023.0 mb - 0.00 in0.0 mm 0.04 in1.0 mm
05:45 PM 43.0°F6.1°C 32.8°F0.4°C 67% 1.2 mph W1.9 kmh W 3.5 mph5.6 kmh 30.21 in1023.0 mb - 0.00 in0.0 mm 0.04 in1.0 mm
06:00 PM 42.9°F6.1°C 32.7°F0.4°C 67% 2.3 mph WNW3.7 kmh WNW 3.5 mph5.6 kmh 30.22 in1023.4 mb - 0.00 in0.0 mm 0.04 in1.0 mm
06:15 PM 42.8°F6.0°C 32.6°F0.3°C 67% 1.2 mph WNW1.9 kmh WNW 4.6 mph7.4 kmh 30.22 in1023.4 mb - 0.00 in0.0 mm 0.04 in1.0 mm
06:30 PM 42.7°F5.9°C 32.5°F0.3°C 67% 1.2 mph WNW1.9 kmh WNW 3.5 mph5.6 kmh 30.22 in1023.4 mb - 0.00 in0.0 mm 0.04 in1.0 mm
06:45 PM 42.7°F5.9°C 32.5°F0.3°C 67% 2.3 mph W3.7 kmh W 3.5 mph5.6 kmh 30.23 in1023.7 mb - 0.00 in0.0 mm 0.04 in1.0 mm
07:00 PM 42.6°F5.9°C 32.4°F0.2°C 67% 2.3 mph WNW3.7 kmh WNW 4.6 mph7.4 kmh 30.23 in1023.7 mb - 0.00 in0.0 mm 0.04 in1.0 mm
07:15 PM 42.5°F5.8°C 32.3°F0.2°C 67% 2.3 mph WNW3.7 kmh WNW 4.6 mph7.4 kmh 30.23 in1023.7 mb - 0.00 in0.0 mm 0.04 in1.0 mm
07:30 PM 42.5°F5.8°C 32.3°F0.2°C 67% 4.6 mph WNW7.4 kmh WNW 8.1 mph13.0 kmh 30.23 in1023.7 mb - 0.00 in0.0 mm 0.04 in1.0 mm
07:45 PM 42.5°F5.8°C 32.3°F0.2°C 67% 4.6 mph WNW7.4 kmh WNW 6.9 mph11.1 kmh 30.23 in1023.7 mb - 0.00 in0.0 mm 0.04 in1.0 mm
08:00 PM 42.5°F5.8°C 32.3°F0.2°C 67% 2.3 mph W3.7 kmh W 3.5 mph5.6 kmh 30.23 in1023.7 mb - 0.00 in0.0 mm 0.04 in1.0 mm
08:15 PM 42.5°F5.8°C 32.3°F0.2°C 67% 2.3 mph WNW3.7 kmh WNW 4.6 mph7.4 kmh 30.24 in1024.0 mb - 0.00 in0.0 mm 0.04 in1.0 mm
08:30 PM 42.5°F5.8°C 32.3°F0.2°C 67% 3.5 mph W5.6 kmh W 5.8 mph9.3 kmh 30.25 in1024.4 mb - 0.00 in0.0 mm 0.04 in1.0 mm
08:45 PM 42.4°F5.8°C 32.2°F0.1°C 67% 2.3 mph W3.7 kmh W 4.6 mph7.4 kmh 30.25 in1024.4 mb - 0.00 in0.0 mm 0.04 in1.0 mm
09:00 PM 42.1°F5.6°C 32.3°F0.2°C 68% 2.3 mph WNW3.7 kmh WNW 3.5 mph5.6 kmh 30.25 in1024.4 mb - 0.00 in0.0 mm 0.04 in1.0 mm
09:15 PM 42.1°F5.6°C 32.3°F0.2°C 68% 2.3 mph W3.7 kmh W 2.3 mph3.7 kmh 30.26 in1024.7 mb - 0.00 in0.0 mm 0.04 in1.0 mm
09:30 PM 42.0°F5.6°C 32.6°F0.3°C 69% 4.6 mph WNW7.4 kmh WNW 5.8 mph9.3 kmh 30.26 in1024.7 mb - 0.00 in0.0 mm 0.04 in1.0 mm
09:45 PM 41.7°F5.4°C 32.3°F0.2°C 69% 3.5 mph WNW5.6 kmh WNW 4.6 mph7.4 kmh 30.26 in1024.7 mb - 0.00 in0.0 mm 0.04 in1.0 mm
10:00 PM 41.3°F5.2°C 32.3°F0.2°C 70% 1.2 mph WNW1.9 kmh WNW 3.5 mph5.6 kmh 30.26 in1024.7 mb - 0.00 in0.0 mm 0.04 in1.0 mm
10:15 PM 41.0°F5.0°C 32.3°F0.2°C 71% Calm Calm 2.3 mph3.7 kmh 30.26 in1024.7 mb - 0.00 in0.0 mm 0.04 in1.0 mm
10:30 PM 40.8°F4.9°C 32.1°F0.1°C 71% 1.2 mph WNW1.9 kmh WNW 3.5 mph5.6 kmh 30.27 in1025.1 mb - 0.00 in0.0 mm 0.04 in1.0 mm
10:45 PM 40.8°F4.9°C 32.5°F0.3°C 72% 1.2 mph W1.9 kmh W 3.5 mph5.6 kmh 30.27 in1025.1 mb - 0.00 in0.0 mm 0.04 in1.0 mm
11:00 PM 40.8°F4.9°C 32.5°F0.3°C 72% Calm Calm 1.2 mph1.9 kmh 30.27 in1025.1 mb - 0.00 in0.0 mm 0.04 in1.0 mm
11:15 PM 40.8°F4.9°C 32.5°F0.3°C 72% 1.2 mph WNW1.9 kmh WNW 3.5 mph5.6 kmh 30.28 in1025.4 mb - 0.00 in0.0 mm 0.04 in1.0 mm
11:30 PM 40.7°F4.8°C 32.4°F0.2°C 72% Calm Calm 1.2 mph1.9 kmh 30.29 in1025.7 mb - 0.00 in0.0 mm 0.04 in1.0 mm
11:45 PM 40.8°F4.9°C 32.5°F0.3°C 72% Calm Calm -- 30.29 in1025.7 mb - 0.00 in0.0 mm 0.04 in1.0 mm